sensor_id;sensor_type;location;lat;lon;timestamp;temperature;humidity
59075;DHT22;44860;53.020;6.738;2023-08-21T00:02:20;18.50;99.90
59075;DHT22;44860;53.020;6.738;2023-08-21T00:04:46;18.50;99.90
59075;DHT22;44860;53.020;6.738;2023-08-21T00:07:12;18.40;99.90
59075;DHT22;44860;53.020;6.738;2023-08-21T00:09:37;18.40;99.90
59075;DHT22;44860;53.020;6.738;2023-08-21T00:12:04;18.40;99.90
59075;DHT22;44860;53.020;6.738;2023-08-21T00:14:30;18.40;99.90
59075;DHT22;44860;53.020;6.738;2023-08-21T00:16:55;18.30;99.90
59075;DHT22;44860;53.020;6.738;2023-08-21T00:19:21;18.30;99.90
59075;DHT22;44860;53.020;6.738;2023-08-21T00:21:47;18.30;99.90
59075;DHT22;44860;53.020;6.738;2023-08-21T00:24:13;18.20;99.90
59075;DHT22;44860;53.020;6.738;2023-08-21T00:26:38;18.20;99.90
59075;DHT22;44860;53.020;6.738;2023-08-21T00:29:04;18.10;99.90
59075;DHT22;44860;53.020;6.738;2023-08-21T00:31:30;18.10;99.90
59075;DHT22;44860;53.020;6.738;2023-08-21T00:33:55;18.10;99.90
59075;DHT22;44860;53.020;6.738;2023-08-21T00:36:21;18.00;99.90
59075;DHT22;44860;53.020;6.738;2023-08-21T00:38:47;18.00;99.90
59075;DHT22;44860;53.020;6.738;2023-08-21T00:41:13;18.00;99.90
59075;DHT22;44860;53.020;6.738;2023-08-21T00:43:39;18.00;99.90
59075;DHT22;44860;53.020;6.738;2023-08-21T00:46:05;17.90;99.90
59075;DHT22;44860;53.020;6.738;2023-08-21T00:48:31;17.90;99.90
59075;DHT22;44860;53.020;6.738;2023-08-21T00:50:58;17.80;99.90
59075;DHT22;44860;53.020;6.738;2023-08-21T00:53:24;17.80;99.90
59075;DHT22;44860;53.020;6.738;2023-08-21T00:55:50;17.80;99.90
59075;DHT22;44860;53.020;6.738;2023-08-21T00:58:17;17.80;99.90
59075;DHT22;44860;53.020;6.738;2023-08-21T01:00:45;17.70;99.90
59075;DHT22;44860;53.020;6.738;2023-08-21T01:03:12;17.70;99.90
59075;DHT22;44860;53.020;6.738;2023-08-21T01:05:38;17.70;99.90
59075;DHT22;44860;53.020;6.738;2023-08-21T01:11:00;17.60;99.90
59075;DHT22;44860;53.020;6.738;2023-08-21T01:15:59;17.50;99.90
59075;DHT22;44860;53.020;6.738;2023-08-21T01:18:26;17.50;99.90
59075;DHT22;44860;53.020;6.738;2023-08-21T01:20:54;17.50;99.90
59075;DHT22;44860;53.020;6.738;2023-08-21T01:23:36;17.50;99.90
59075;DHT22;44860;53.020;6.738;2023-08-21T01:26:03;17.50;99.90
59075;DHT22;44860;53.020;6.738;2023-08-21T01:28:29;17.40;99.90
59075;DHT22;44860;53.020;6.738;2023-08-21T01:33:45;17.40;99.90
59075;DHT22;44860;53.020;6.738;2023-08-21T01:36:13;17.30;99.90
59075;DHT22;44860;53.020;6.738;2023-08-21T01:38:39;17.30;99.90
59075;DHT22;44860;53.020;6.738;2023-08-21T01:41:05;17.30;99.90
59075;DHT22;44860;53.020;6.738;2023-08-21T01:43:31;17.30;99.90
59075;DHT22;44860;53.020;6.738;2023-08-21T01:45:57;17.20;99.90
59075;DHT22;44860;53.020;6.738;2023-08-21T01:48:23;17.20;99.90
59075;DHT22;44860;53.020;6.738;2023-08-21T01:50:49;17.10;99.90
59075;DHT22;44860;53.020;6.738;2023-08-21T01:53:14;17.10;99.90
59075;DHT22;44860;53.020;6.738;2023-08-21T01:55:40;17.10;99.90
59075;DHT22;44860;53.020;6.738;2023-08-21T01:58:06;17.10;99.90
59075;DHT22;44860;53.020;6.738;2023-08-21T02:00:31;17.00;99.90
59075;DHT22;44860;53.020;6.738;2023-08-21T02:02:57;17.10;99.90
59075;DHT22;44860;53.020;6.738;2023-08-21T02:05:23;17.00;99.90
59075;DHT22;44860;53.020;6.738;2023-08-21T02:07:48;17.00;99.90
59075;DHT22;44860;53.020;6.738;2023-08-21T02:10:14;17.00;99.90
59075;DHT22;44860;53.020;6.738;2023-08-21T02:12:40;17.00;99.90
59075;DHT22;44860;53.020;6.738;2023-08-21T02:15:06;16.90;99.90
59075;DHT22;44860;53.020;6.738;2023-08-21T02:17:32;16.90;99.90
59075;DHT22;44860;53.020;6.738;2023-08-21T02:19:57;16.90;99.90
59075;DHT22;44860;53.020;6.738;2023-08-21T02:22:23;16.80;99.90
59075;DHT22;44860;53.020;6.738;2023-08-21T02:24:49;16.80;99.90
59075;DHT22;44860;53.020;6.738;2023-08-21T02:27:14;16.80;99.90
59075;DHT22;44860;53.020;6.738;2023-08-21T02:29:40;16.80;99.90
59075;DHT22;44860;53.020;6.738;2023-08-21T02:32:06;16.80;99.90
59075;DHT22;44860;53.020;6.738;2023-08-21T02:34:32;16.70;99.90
59075;DHT22;44860;53.020;6.738;2023-08-21T02:36:58;16.70;99.90
59075;DHT22;44860;53.020;6.738;2023-08-21T02:39:24;16.70;99.90
59075;DHT22;44860;53.020;6.738;2023-08-21T02:41:50;16.70;99.90
59075;DHT22;44860;53.020;6.738;2023-08-21T02:44:15;16.70;99.90
59075;DHT22;44860;53.020;6.738;2023-08-21T02:46:41;16.60;99.90
59075;DHT22;44860;53.020;6.738;2023-08-21T02:49:07;16.60;99.90
59075;DHT22;44860;53.020;6.738;2023-08-21T02:51:32;16.60;99.90
59075;DHT22;44860;53.020;6.738;2023-08-21T02:53:58;16.50;99.90
59075;DHT22;44860;53.020;6.738;2023-08-21T02:56:23;16.60;99.90
59075;DHT22;44860;53.020;6.738;2023-08-21T02:58:49;16.50;99.90
59075;DHT22;44860;53.020;6.738;2023-08-21T03:01:15;16.50;99.90
59075;DHT22;44860;53.020;6.738;2023-08-21T03:03:40;16.50;99.90
59075;DHT22;44860;53.020;6.738;2023-08-21T03:06:06;16.40;99.90
59075;DHT22;44860;53.020;6.738;2023-08-21T03:08:32;16.40;99.90
59075;DHT22;44860;53.020;6.738;2023-08-21T03:10:57;16.40;99.90
59075;DHT22;44860;53.020;6.738;2023-08-21T03:13:23;16.40;99.90
59075;DHT22;44860;53.020;6.738;2023-08-21T03:15:49;16.30;99.90
59075;DHT22;44860;53.020;6.738;2023-08-21T03:18:14;16.30;99.90
59075;DHT22;44860;53.020;6.738;2023-08-21T03:20:46;16.30;99.90
59075;DHT22;44860;53.020;6.738;2023-08-21T03:23:13;16.30;99.90
59075;DHT22;44860;53.020;6.738;2023-08-21T03:25:39;16.30;99.90
59075;DHT22;44860;53.020;6.738;2023-08-21T03:28:04;16.30;99.90
59075;DHT22;44860;53.020;6.738;2023-08-21T03:30:30;16.20;99.90
59075;DHT22;44860;53.020;6.738;2023-08-21T03:32:56;16.30;99.90
59075;DHT22;44860;53.020;6.738;2023-08-21T03:35:21;16.20;99.90
59075;DHT22;44860;53.020;6.738;2023-08-21T03:37:47;16.20;99.90
59075;DHT22;44860;53.020;6.738;2023-08-21T03:40:13;16.20;99.90
59075;DHT22;44860;53.020;6.738;2023-08-21T03:42:38;16.20;99.90
59075;DHT22;44860;53.020;6.738;2023-08-21T03:45:04;16.20;99.90
59075;DHT22;44860;53.020;6.738;2023-08-21T03:47:31;16.10;99.90
59075;DHT22;44860;53.020;6.738;2023-08-21T03:49:56;16.10;99.90
59075;DHT22;44860;53.020;6.738;2023-08-21T03:52:22;16.10;99.90
59075;DHT22;44860;53.020;6.738;2023-08-21T03:54:48;16.10;99.90
59075;DHT22;44860;53.020;6.738;2023-08-21T03:57:13;16.10;99.90
59075;DHT22;44860;53.020;6.738;2023-08-21T03:59:39;16.10;99.90
59075;DHT22;44860;53.020;6.738;2023-08-21T04:02:05;16.00;99.90
59075;DHT22;44860;53.020;6.738;2023-08-21T04:04:30;16.00;99.90
59075;DHT22;44860;53.020;6.738;2023-08-21T04:06:56;16.00;99.90
59075;DHT22;44860;53.020;6.738;2023-08-21T04:09:22;16.00;99.90
59075;DHT22;44860;53.020;6.738;2023-08-21T04:11:47;16.00;99.90
59075;DHT22;44860;53.020;6.738;2023-08-21T04:14:13;16.00;99.90
59075;DHT22;44860;53.020;6.738;2023-08-21T04:16:39;15.90;99.90
59075;DHT22;44860;53.020;6.738;2023-08-21T04:19:05;16.00;99.90
59075;DHT22;44860;53.020;6.738;2023-08-21T04:21:31;16.00;99.90
59075;DHT22;44860;53.020;6.738;2023-08-21T04:23:57;15.90;99.90
59075;DHT22;44860;53.020;6.738;2023-08-21T04:26:22;15.90;99.90
59075;DHT22;44860;53.020;6.738;2023-08-21T04:28:48;15.80;99.90
59075;DHT22;44860;53.020;6.738;2023-08-21T04:31:14;15.80;99.90
59075;DHT22;44860;53.020;6.738;2023-08-21T04:33:40;15.80;99.90
59075;DHT22;44860;53.020;6.738;2023-08-21T04:36:05;15.80;99.90
59075;DHT22;44860;53.020;6.738;2023-08-21T04:38:31;15.80;99.90
59075;DHT22;44860;53.020;6.738;2023-08-21T04:41:06;15.80;99.90
59075;DHT22;44860;53.020;6.738;2023-08-21T04:43:32;15.80;99.90
59075;DHT22;44860;53.020;6.738;2023-08-21T04:45:57;15.70;99.90
59075;DHT22;44860;53.020;6.738;2023-08-21T04:48:23;15.70;99.90
59075;DHT22;44860;53.020;6.738;2023-08-21T04:50:49;15.70;99.90
59075;DHT22;44860;53.020;6.738;2023-08-21T04:53:15;15.70;99.90
59075;DHT22;44860;53.020;6.738;2023-08-21T04:55:40;15.70;99.90
59075;DHT22;44860;53.020;6.738;2023-08-21T04:58:07;15.70;99.90
59075;DHT22;44860;53.020;6.738;2023-08-21T05:00:33;15.70;99.90
59075;DHT22;44860;53.020;6.738;2023-08-21T05:02:59;15.70;99.90
59075;DHT22;44860;53.020;6.738;2023-08-21T05:05:24;15.70;99.90
59075;DHT22;44860;53.020;6.738;2023-08-21T05:07:52;15.70;99.90
59075;DHT22;44860;53.020;6.738;2023-08-21T05:10:18;15.70;99.90
59075;DHT22;44860;53.020;6.738;2023-08-21T05:12:45;15.60;99.90
59075;DHT22;44860;53.020;6.738;2023-08-21T05:15:11;15.60;99.90
59075;DHT22;44860;53.020;6.738;2023-08-21T05:17:37;15.60;99.90
59075;DHT22;44860;53.020;6.738;2023-08-21T05:20:03;15.60;99.90
59075;DHT22;44860;53.020;6.738;2023-08-21T05:22:28;15.60;99.90
59075;DHT22;44860;53.020;6.738;2023-08-21T05:24:54;15.60;99.90
59075;DHT22;44860;53.020;6.738;2023-08-21T05:27:20;15.60;99.90
59075;DHT22;44860;53.020;6.738;2023-08-21T05:29:45;15.60;99.90
59075;DHT22;44860;53.020;6.738;2023-08-21T05:32:11;15.70;99.90
59075;DHT22;44860;53.020;6.738;2023-08-21T05:34:37;15.60;99.90
59075;DHT22;44860;53.020;6.738;2023-08-21T05:37:02;15.60;99.90
59075;DHT22;44860;53.020;6.738;2023-08-21T05:39:28;15.60;99.90
59075;DHT22;44860;53.020;6.738;2023-08-21T05:41:54;15.60;99.90
59075;DHT22;44860;53.020;6.738;2023-08-21T05:44:20;15.60;99.90
59075;DHT22;44860;53.020;6.738;2023-08-21T05:46:46;15.70;99.90
59075;DHT22;44860;53.020;6.738;2023-08-21T05:49:11;15.70;99.90
59075;DHT22;44860;53.020;6.738;2023-08-21T05:51:37;15.70;99.90
59075;DHT22;44860;53.020;6.738;2023-08-21T05:54:03;15.70;99.90
59075;DHT22;44860;53.020;6.738;2023-08-21T05:56:28;15.70;99.90
59075;DHT22;44860;53.020;6.738;2023-08-21T05:58:54;15.80;99.90
59075;DHT22;44860;53.020;6.738;2023-08-21T06:01:20;15.70;99.90
59075;DHT22;44860;53.020;6.738;2023-08-21T06:03:45;15.80;99.90
59075;DHT22;44860;53.020;6.738;2023-08-21T06:06:11;15.80;99.90
59075;DHT22;44860;53.020;6.738;2023-08-21T06:08:37;15.80;99.90
59075;DHT22;44860;53.020;6.738;2023-08-21T06:11:02;15.80;99.90
59075;DHT22;44860;53.020;6.738;2023-08-21T06:13:28;15.80;99.90
59075;DHT22;44860;53.020;6.738;2023-08-21T06:15:54;15.90;99.90
59075;DHT22;44860;53.020;6.738;2023-08-21T06:18:20;15.90;99.90
59075;DHT22;44860;53.020;6.738;2023-08-21T06:20:45;15.90;99.90
59075;DHT22;44860;53.020;6.738;2023-08-21T06:23:12;15.90;99.90
59075;DHT22;44860;53.020;6.738;2023-08-21T06:25:37;16.00;99.90
59075;DHT22;44860;53.020;6.738;2023-08-21T06:28:04;16.00;99.90
59075;DHT22;44860;53.020;6.738;2023-08-21T06:30:30;16.10;99.90
59075;DHT22;44860;53.020;6.738;2023-08-21T06:32:56;16.10;99.90
59075;DHT22;44860;53.020;6.738;2023-08-21T06:35:22;16.20;99.90
59075;DHT22;44860;53.020;6.738;2023-08-21T06:37:48;16.20;99.90
59075;DHT22;44860;53.020;6.738;2023-08-21T06:40:13;16.30;99.90
59075;DHT22;44860;53.020;6.738;2023-08-21T06:42:39;16.40;99.90
59075;DHT22;44860;53.020;6.738;2023-08-21T06:45:05;16.50;99.90
59075;DHT22;44860;53.020;6.738;2023-08-21T06:47:32;16.50;99.90
59075;DHT22;44860;53.020;6.738;2023-08-21T06:49:57;16.60;99.90
59075;DHT22;44860;53.020;6.738;2023-08-21T06:52:23;16.70;99.90
59075;DHT22;44860;53.020;6.738;2023-08-21T06:54:49;16.70;99.90
59075;DHT22;44860;53.020;6.738;2023-08-21T06:57:15;16.80;99.90
59075;DHT22;44860;53.020;6.738;2023-08-21T06:59:40;16.90;99.90
59075;DHT22;44860;53.020;6.738;2023-08-21T07:02:06;17.00;99.90
59075;DHT22;44860;53.020;6.738;2023-08-21T07:04:32;17.10;99.90
59075;DHT22;44860;53.020;6.738;2023-08-21T07:07:01;17.20;99.90
59075;DHT22;44860;53.020;6.738;2023-08-21T07:09:26;17.30;99.90
59075;DHT22;44860;53.020;6.738;2023-08-21T07:11:52;17.40;99.90
59075;DHT22;44860;53.020;6.738;2023-08-21T07:14:18;17.50;99.90
59075;DHT22;44860;53.020;6.738;2023-08-21T07:16:44;17.60;99.90
59075;DHT22;44860;53.020;6.738;2023-08-21T07:19:10;17.70;99.90
59075;DHT22;44860;53.020;6.738;2023-08-21T07:21:36;17.80;99.90
59075;DHT22;44860;53.020;6.738;2023-08-21T07:24:03;17.80;99.90
59075;DHT22;44860;53.020;6.738;2023-08-21T07:26:29;17.90;99.90
59075;DHT22;44860;53.020;6.738;2023-08-21T07:28:55;18.00;99.90
59075;DHT22;44860;53.020;6.738;2023-08-21T07:31:21;18.10;99.90
59075;DHT22;44860;53.020;6.738;2023-08-21T07:33:47;18.10;99.90
59075;DHT22;44860;53.020;6.738;2023-08-21T07:36:13;18.30;99.90
59075;DHT22;44860;53.020;6.738;2023-08-21T07:38:43;18.30;99.90
59075;DHT22;44860;53.020;6.738;2023-08-21T07:41:11;18.50;99.90
59075;DHT22;44860;53.020;6.738;2023-08-21T07:43:39;18.50;99.90
59075;DHT22;44860;53.020;6.738;2023-08-21T07:46:06;18.70;99.90
59075;DHT22;44860;53.020;6.738;2023-08-21T07:48:32;18.70;99.90
59075;DHT22;44860;53.020;6.738;2023-08-21T07:50:58;18.80;99.90
59075;DHT22;44860;53.020;6.738;2023-08-21T07:53:25;18.90;99.90
59075;DHT22;44860;53.020;6.738;2023-08-21T07:55:51;19.00;99.90
59075;DHT22;44860;53.020;6.738;2023-08-21T07:58:17;19.00;99.90
59075;DHT22;44860;53.020;6.738;2023-08-21T08:00:43;19.10;99.90
59075;DHT22;44860;53.020;6.738;2023-08-21T08:03:09;19.20;99.90
59075;DHT22;44860;53.020;6.738;2023-08-21T08:05:36;19.30;99.90
59075;DHT22;44860;53.020;6.738;2023-08-21T08:08:02;19.40;99.90
59075;DHT22;44860;53.020;6.738;2023-08-21T08:10:28;19.40;99.90
59075;DHT22;44860;53.020;6.738;2023-08-21T08:12:54;19.50;99.90
59075;DHT22;44860;53.020;6.738;2023-08-21T08:15:20;19.60;99.90
59075;DHT22;44860;53.020;6.738;2023-08-21T08:17:46;19.70;99.90
59075;DHT22;44860;53.020;6.738;2023-08-21T08:20:13;19.80;99.90
59075;DHT22;44860;53.020;6.738;2023-08-21T08:22:39;19.80;99.90
59075;DHT22;44860;53.020;6.738;2023-08-21T08:25:05;20.00;99.90
59075;DHT22;44860;53.020;6.738;2023-08-21T08:27:34;20.00;99.90
59075;DHT22;44860;53.020;6.738;2023-08-21T08:30:00;20.10;99.90
59075;DHT22;44860;53.020;6.738;2023-08-21T08:32:26;20.20;99.90
59075;DHT22;44860;53.020;6.738;2023-08-21T08:34:52;20.30;99.90
59075;DHT22;44860;53.020;6.738;2023-08-21T08:37:19;20.40;99.90
59075;DHT22;44860;53.020;6.738;2023-08-21T08:39:48;20.50;99.90
59075;DHT22;44860;53.020;6.738;2023-08-21T08:42:15;20.60;99.90
59075;DHT22;44860;53.020;6.738;2023-08-21T08:44:42;20.60;99.90
59075;DHT22;44860;53.020;6.738;2023-08-21T08:47:12;20.70;99.90
59075;DHT22;44860;53.020;6.738;2023-08-21T08:49:38;20.80;99.90
59075;DHT22;44860;53.020;6.738;2023-08-21T08:52:04;20.80;99.90
59075;DHT22;44860;53.020;6.738;2023-08-21T08:54:30;20.90;99.90
59075;DHT22;44860;53.020;6.738;2023-08-21T08:56:57;21.00;99.90
59075;DHT22;44860;53.020;6.738;2023-08-21T08:59:23;21.00;99.90
59075;DHT22;44860;53.020;6.738;2023-08-21T09:01:49;21.10;99.90
59075;DHT22;44860;53.020;6.738;2023-08-21T09:04:15;21.20;99.90
59075;DHT22;44860;53.020;6.738;2023-08-21T09:06:41;21.30;99.90
59075;DHT22;44860;53.020;6.738;2023-08-21T09:09:07;21.40;99.90
59075;DHT22;44860;53.020;6.738;2023-08-21T09:11:33;21.50;99.90
59075;DHT22;44860;53.020;6.738;2023-08-21T09:14:00;21.60;99.90
59075;DHT22;44860;53.020;6.738;2023-08-21T09:16:26;21.60;99.90
59075;DHT22;44860;53.020;6.738;2023-08-21T09:18:56;21.60;99.90
59075;DHT22;44860;53.020;6.738;2023-08-21T09:21:23;21.70;99.90
59075;DHT22;44860;53.020;6.738;2023-08-21T09:24:02;21.80;99.90
59075;DHT22;44860;53.020;6.738;2023-08-21T09:26:31;21.80;99.90
59075;DHT22;44860;53.020;6.738;2023-08-21T09:29:03;21.90;99.90
59075;DHT22;44860;53.020;6.738;2023-08-21T09:31:31;22.00;99.90
59075;DHT22;44860;53.020;6.738;2023-08-21T09:33:58;22.10;99.90
59075;DHT22;44860;53.020;6.738;2023-08-21T09:36:24;22.20;99.90
59075;DHT22;44860;53.020;6.738;2023-08-21T09:38:51;22.30;99.90
59075;DHT22;44860;53.020;6.738;2023-08-21T09:41:21;22.30;99.90
59075;DHT22;44860;53.020;6.738;2023-08-21T09:43:47;22.50;99.90
59075;DHT22;44860;53.020;6.738;2023-08-21T09:46:17;22.50;99.90
59075;DHT22;44860;53.020;6.738;2023-08-21T09:48:47;22.60;99.90
59075;DHT22;44860;53.020;6.738;2023-08-21T09:51:13;22.60;99.90
59075;DHT22;44860;53.020;6.738;2023-08-21T09:53:39;22.70;99.20
59075;DHT22;44860;53.020;6.738;2023-08-21T09:56:06;22.70;99.90
59075;DHT22;44860;53.020;6.738;2023-08-21T09:58:31;22.80;99.80
59075;DHT22;44860;53.020;6.738;2023-08-21T10:00:58;22.90;99.90
59075;DHT22;44860;53.020;6.738;2023-08-21T10:03:25;23.00;99.90
59075;DHT22;44860;53.020;6.738;2023-08-21T10:05:51;23.10;99.20
59075;DHT22;44860;53.020;6.738;2023-08-21T10:08:24;23.10;99.30
59075;DHT22;44860;53.020;6.738;2023-08-21T10:10:51;23.20;98.30
59075;DHT22;44860;53.020;6.738;2023-08-21T10:13:17;23.30;96.80
59075;DHT22;44860;53.020;6.738;2023-08-21T10:15:44;23.30;96.00
59075;DHT22;44860;53.020;6.738;2023-08-21T10:18:24;23.30;96.40
59075;DHT22;44860;53.020;6.738;2023-08-21T10:20:51;23.40;95.30
59075;DHT22;44860;53.020;6.738;2023-08-21T10:23:30;23.40;94.70
59075;DHT22;44860;53.020;6.738;2023-08-21T10:26:02;23.50;95.00
59075;DHT22;44860;53.020;6.738;2023-08-21T10:28:50;23.60;94.40
59075;DHT22;44860;53.020;6.738;2023-08-21T10:33:51;23.80;95.30
59075;DHT22;44860;53.020;6.738;2023-08-21T10:39:15;23.90;90.70
59075;DHT22;44860;53.020;6.738;2023-08-21T10:41:56;24.00;92.40
59075;DHT22;44860;53.020;6.738;2023-08-21T10:47:22;24.10;88.00
59075;DHT22;44860;53.020;6.738;2023-08-21T10:49:53;24.10;90.30
59075;DHT22;44860;53.020;6.738;2023-08-21T10:54:58;24.30;87.70
59075;DHT22;44860;53.020;6.738;2023-08-21T10:57:26;24.30;87.10
59075;DHT22;44860;53.020;6.738;2023-08-21T11:02:28;24.40;84.00
59075;DHT22;44860;53.020;6.738;2023-08-21T11:04:54;24.50;90.30
59075;DHT22;44860;53.020;6.738;2023-08-21T11:07:20;24.60;89.70
59075;DHT22;44860;53.020;6.738;2023-08-21T11:09:47;24.70;86.90
59075;DHT22;44860;53.020;6.738;2023-08-21T11:12:15;24.80;88.00
59075;DHT22;44860;53.020;6.738;2023-08-21T11:14:41;24.90;86.10
59075;DHT22;44860;53.020;6.738;2023-08-21T11:17:08;24.90;85.50
59075;DHT22;44860;53.020;6.738;2023-08-21T11:19:35;24.90;83.80
59075;DHT22;44860;53.020;6.738;2023-08-21T11:22:01;25.00;80.70
59075;DHT22;44860;53.020;6.738;2023-08-21T11:24:46;25.00;77.20
59075;DHT22;44860;53.020;6.738;2023-08-21T11:27:17;25.00;71.80
59075;DHT22;44860;53.020;6.738;2023-08-21T11:29:50;25.00;72.60
59075;DHT22;44860;53.020;6.738;2023-08-21T11:32:23;25.10;71.50
59075;DHT22;44860;53.020;6.738;2023-08-21T11:34:53;25.10;69.10
59075;DHT22;44860;53.020;6.738;2023-08-21T11:37:24;25.20;68.00
59075;DHT22;44860;53.020;6.738;2023-08-21T11:39:53;25.20;66.60
59075;DHT22;44860;53.020;6.738;2023-08-21T11:42:20;25.30;66.00
59075;DHT22;44860;53.020;6.738;2023-08-21T11:44:52;25.30;66.50
59075;DHT22;44860;53.020;6.738;2023-08-21T11:47:21;25.40;66.40
59075;DHT22;44860;53.020;6.738;2023-08-21T11:49:48;25.40;65.30
59075;DHT22;44860;53.020;6.738;2023-08-21T11:52:20;25.40;65.40
59075;DHT22;44860;53.020;6.738;2023-08-21T11:54:50;25.50;63.70
59075;DHT22;44860;53.020;6.738;2023-08-21T11:57:17;25.50;61.10
59075;DHT22;44860;53.020;6.738;2023-08-21T11:59:48;25.60;63.40
59075;DHT22;44860;53.020;6.738;2023-08-21T12:02:17;25.70;64.30
59075;DHT22;44860;53.020;6.738;2023-08-21T12:04:43;25.80;64.90
59075;DHT22;44860;53.020;6.738;2023-08-21T12:07:10;25.90;65.50
59075;DHT22;44860;53.020;6.738;2023-08-21T12:09:36;26.00;64.70
59075;DHT22;44860;53.020;6.738;2023-08-21T12:12:02;26.00;64.00
59075;DHT22;44860;53.020;6.738;2023-08-21T12:14:29;26.10;60.40
59075;DHT22;44860;53.020;6.738;2023-08-21T12:16:55;26.00;58.30
59075;DHT22;44860;53.020;6.738;2023-08-21T12:19:24;26.00;55.70
59075;DHT22;44860;53.020;6.738;2023-08-21T12:21:50;25.90;53.40
59075;DHT22;44860;53.020;6.738;2023-08-21T12:24:16;26.00;52.60
59075;DHT22;44860;53.020;6.738;2023-08-21T12:26:42;26.00;54.10
59075;DHT22;44860;53.020;6.738;2023-08-21T12:29:07;26.00;55.80
59075;DHT22;44860;53.020;6.738;2023-08-21T12:31:33;26.10;54.80
59075;DHT22;44860;53.020;6.738;2023-08-21T12:33:59;26.20;53.90
59075;DHT22;44860;53.020;6.738;2023-08-21T12:36:25;26.20;53.10
59075;DHT22;44860;53.020;6.738;2023-08-21T12:38:51;26.30;53.80
59075;DHT22;44860;53.020;6.738;2023-08-21T12:41:16;26.40;54.70
59075;DHT22;44860;53.020;6.738;2023-08-21T12:43:42;26.50;52.60
59075;DHT22;44860;53.020;6.738;2023-08-21T12:46:08;26.40;50.40
59075;DHT22;44860;53.020;6.738;2023-08-21T12:48:34;26.50;50.00
59075;DHT22;44860;53.020;6.738;2023-08-21T12:51:00;26.60;50.10
59075;DHT22;44860;53.020;6.738;2023-08-21T12:53:25;26.60;48.60
59075;DHT22;44860;53.020;6.738;2023-08-21T12:55:51;26.60;49.30
59075;DHT22;44860;53.020;6.738;2023-08-21T12:58:16;26.70;47.50
59075;DHT22;44860;53.020;6.738;2023-08-21T13:00:43;26.70;47.90
59075;DHT22;44860;53.020;6.738;2023-08-21T13:03:09;26.70;46.80
59075;DHT22;44860;53.020;6.738;2023-08-21T13:05:35;26.80;47.70
59075;DHT22;44860;53.020;6.738;2023-08-21T13:08:00;26.90;47.10
59075;DHT22;44860;53.020;6.738;2023-08-21T13:10:26;26.90;47.00
59075;DHT22;44860;53.020;6.738;2023-08-21T13:12:52;27.00;46.50
59075;DHT22;44860;53.020;6.738;2023-08-21T13:15:18;27.00;45.90
59075;DHT22;44860;53.020;6.738;2023-08-21T13:17:43;27.10;45.60
59075;DHT22;44860;53.020;6.738;2023-08-21T13:20:09;27.10;44.00
59075;DHT22;44860;53.020;6.738;2023-08-21T13:22:48;27.20;43.80
59075;DHT22;44860;53.020;6.738;2023-08-21T13:25:15;27.40;43.40
59075;DHT22;44860;53.020;6.738;2023-08-21T13:27:41;27.40;44.10
59075;DHT22;44860;53.020;6.738;2023-08-21T13:30:08;27.40;43.40
59075;DHT22;44860;53.020;6.738;2023-08-21T13:32:34;27.40;43.20
59075;DHT22;44860;53.020;6.738;2023-08-21T13:34:59;27.40;41.50
59075;DHT22;44860;53.020;6.738;2023-08-21T13:37:25;27.30;40.40
59075;DHT22;44860;53.020;6.738;2023-08-21T13:39:52;27.40;41.90
59075;DHT22;44860;53.020;6.738;2023-08-21T13:42:18;27.40;42.20
59075;DHT22;44860;53.020;6.738;2023-08-21T13:44:44;27.50;41.50
59075;DHT22;44860;53.020;6.738;2023-08-21T13:47:10;27.50;38.10
59075;DHT22;44860;53.020;6.738;2023-08-21T13:49:37;27.60;38.20
59075;DHT22;44860;53.020;6.738;2023-08-21T13:52:03;27.60;38.90
59075;DHT22;44860;53.020;6.738;2023-08-21T13:54:28;27.50;38.90
59075;DHT22;44860;53.020;6.738;2023-08-21T13:56:54;27.60;38.70
59075;DHT22;44860;53.020;6.738;2023-08-21T13:59:20;27.60;37.20
59075;DHT22;44860;53.020;6.738;2023-08-21T14:01:46;27.60;38.00
59075;DHT22;44860;53.020;6.738;2023-08-21T14:04:11;27.50;37.10
59075;DHT22;44860;53.020;6.738;2023-08-21T14:06:37;27.60;38.30
59075;DHT22;44860;53.020;6.738;2023-08-21T14:09:03;27.70;39.40
59075;DHT22;44860;53.020;6.738;2023-08-21T14:11:28;27.70;38.80
59075;DHT22;44860;53.020;6.738;2023-08-21T14:13:54;27.70;38.20
59075;DHT22;44860;53.020;6.738;2023-08-21T14:16:20;27.80;39.20
59075;DHT22;44860;53.020;6.738;2023-08-21T14:18:45;27.90;39.30
59075;DHT22;44860;53.020;6.738;2023-08-21T14:21:11;27.90;38.10
59075;DHT22;44860;53.020;6.738;2023-08-21T14:23:37;28.00;37.90
59075;DHT22;44860;53.020;6.738;2023-08-21T14:26:04;28.00;37.90
59075;DHT22;44860;53.020;6.738;2023-08-21T14:28:30;28.00;36.90
59075;DHT22;44860;53.020;6.738;2023-08-21T14:30:56;28.10;38.20
59075;DHT22;44860;53.020;6.738;2023-08-21T14:33:22;28.20;37.40
59075;DHT22;44860;53.020;6.738;2023-08-21T14:35:47;28.10;36.30
59075;DHT22;44860;53.020;6.738;2023-08-21T14:38:14;28.10;36.50
59075;DHT22;44860;53.020;6.738;2023-08-21T14:40:40;28.20;37.90
59075;DHT22;44860;53.020;6.738;2023-08-21T14:43:05;28.20;37.60
59075;DHT22;44860;53.020;6.738;2023-08-21T14:45:31;28.20;37.30
59075;DHT22;44860;53.020;6.738;2023-08-21T14:47:57;28.10;36.50
59075;DHT22;44860;53.020;6.738;2023-08-21T14:50:22;28.10;37.20
59075;DHT22;44860;53.020;6.738;2023-08-21T14:52:48;28.10;37.30
59075;DHT22;44860;53.020;6.738;2023-08-21T14:55:14;28.10;37.70
59075;DHT22;44860;53.020;6.738;2023-08-21T14:57:40;28.00;36.90
59075;DHT22;44860;53.020;6.738;2023-08-21T15:00:06;28.00;37.90
59075;DHT22;44860;53.020;6.738;2023-08-21T15:02:34;28.00;38.70
59075;DHT22;44860;53.020;6.738;2023-08-21T15:05:02;28.00;38.30
59075;DHT22;44860;53.020;6.738;2023-08-21T15:07:30;28.00;37.30
59075;DHT22;44860;53.020;6.738;2023-08-21T15:09:56;28.00;37.10
59075;DHT22;44860;53.020;6.738;2023-08-21T15:12:21;28.10;36.90
59075;DHT22;44860;53.020;6.738;2023-08-21T15:14:47;28.10;37.10
59075;DHT22;44860;53.020;6.738;2023-08-21T15:17:13;28.00;36.10
59075;DHT22;44860;53.020;6.738;2023-08-21T15:19:39;28.00;36.10
59075;DHT22;44860;53.020;6.738;2023-08-21T15:22:04;28.10;36.70
59075;DHT22;44860;53.020;6.738;2023-08-21T15:24:30;28.10;36.90
59075;DHT22;44860;53.020;6.738;2023-08-21T15:26:56;28.10;36.20
59075;DHT22;44860;53.020;6.738;2023-08-21T15:29:21;28.10;35.60
59075;DHT22;44860;53.020;6.738;2023-08-21T15:31:47;28.20;36.30
59075;DHT22;44860;53.020;6.738;2023-08-21T15:34:13;28.10;34.30
59075;DHT22;44860;53.020;6.738;2023-08-21T15:36:38;28.10;34.30
59075;DHT22;44860;53.020;6.738;2023-08-21T15:39:04;28.10;34.20
59075;DHT22;44860;53.020;6.738;2023-08-21T15:41:30;28.10;35.00
59075;DHT22;44860;53.020;6.738;2023-08-21T15:43:55;28.00;34.20
59075;DHT22;44860;53.020;6.738;2023-08-21T15:46:21;28.00;34.40
59075;DHT22;44860;53.020;6.738;2023-08-21T15:48:47;28.00;34.30